Time;durP1;ratioP1;P1;durP2;ratioP2;P2;SDS_P1;SDS_P2;PMS_P1;PMS_P2;Temp;Humidity;BMP_temperature;BMP_pressure;BME280_temperature;BME280_humidity;BME280_pressure;Samples;Min_cycle;Max_cycle;Signal;HPM_P1;HPM_P2
2022/11/22 00:01:12;;;;;;;11.73;8.80;;;7.40;99.90;;;;;;4996488;28;20503;-83
2022/11/22 00:03:39;;;;;;;16.53;8.80;;;7.40;99.90;;;;;;4996011;28;20210;-82
2022/11/22 00:06:06;;;;;;;15.70;8.87;;;7.40;99.90;;;;;;4996324;28;20212;-83
2022/11/22 00:08:33;;;;;;;16.93;9.07;;;7.40;99.90;;;;;;4997394;28;20238;-84
2022/11/22 00:11:01;;;;;;;15.77;9.23;;;7.40;99.90;;;;;;5016057;28;20207;-83
2022/11/22 00:13:28;;;;;;;12.27;8.00;;;7.40;99.90;;;;;;5009543;28;20208;-82
2022/11/22 00:15:59;;;;;;;12.83;8.50;;;7.40;99.90;;;;;;4995905;28;20319;-82
2022/11/22 00:18:26;;;;;;;12.20;8.53;;;7.40;99.90;;;;;;5010459;28;20222;-83
2022/11/22 00:20:53;;;;;;;14.07;9.00;;;7.40;99.90;;;;;;5007732;28;20211;-82
2022/11/22 00:23:20;;;;;;;13.47;8.40;;;7.40;99.90;;;;;;4995723;28;20291;-83
2022/11/22 00:25:47;;;;;;;12.03;9.10;;;7.50;99.90;;;;;;5018581;28;20533;-84
2022/11/22 00:28:15;;;;;;;22.13;11.23;;;7.50;99.90;;;;;;5019549;28;20227;-83
2022/11/22 00:30:42;;;;;;;14.17;9.70;;;7.50;99.90;;;;;;5014829;28;20286;-82
2022/11/22 00:33:09;;;;;;;18.20;9.40;;;7.40;99.90;;;;;;5013760;28;20295;-83
2022/11/22 00:35:36;;;;;;;14.10;9.07;;;7.40;99.90;;;;;;5015070;28;20744;-85
2022/11/22 00:38:03;;;;;;;17.80;9.80;;;7.40;99.90;;;;;;5014788;28;20576;-81
2022/11/22 00:40:31;;;;;;;19.17;9.33;;;7.40;99.90;;;;;;5012237;28;20290;-80
2022/11/22 00:42:57;;;;;;;17.37;9.37;;;7.40;99.90;;;;;;4995703;28;20466;-81
2022/11/22 00:45:26;;;;;;;14.60;9.37;;;7.30;99.90;;;;;;5009250;28;20208;-80
2022/11/22 00:47:53;;;;;;;16.80;10.03;;;7.40;99.90;;;;;;5013996;28;20535;-80
2022/11/22 00:50:20;;;;;;;15.83;10.20;;;7.30;99.90;;;;;;5004519;28;20218;-83
2022/11/22 00:52:46;;;;;;;14.07;10.47;;;7.30;99.90;;;;;;4995388;28;20196;-83
2022/11/22 00:55:13;;;;;;;15.47;10.20;;;7.30;99.90;;;;;;4998694;28;20500;-81
2022/11/22 00:57:40;;;;;;;16.93;10.13;;;7.30;99.90;;;;;;5014359;28;20201;-84
2022/11/22 01:00:08;;;;;;;16.10;10.83;;;7.30;99.90;;;;;;5013359;28;20241;-81
2022/11/22 01:02:37;;;;;;;19.93;10.87;;;7.30;99.90;;;;;;4994380;28;20208;-83
2022/11/22 01:05:04;;;;;;;18.13;12.00;;;7.30;99.90;;;;;;4994718;28;20600;-82
2022/11/22 01:07:31;;;;;;;16.50;10.53;;;7.30;99.90;;;;;;4994746;28;20646;-80
2022/11/22 01:09:58;;;;;;;20.37;11.40;;;7.30;99.90;;;;;;4993658;28;20768;-81
2022/11/22 01:12:24;;;;;;;21.23;12.27;;;7.30;99.90;;;;;;4995538;28;20215;-86
2022/11/22 01:14:51;;;;;;;18.30;12.40;;;7.20;99.90;;;;;;4995944;28;20417;-88
2022/11/22 01:17:18;;;;;;;17.67;11.50;;;7.20;99.90;;;;;;5004133;28;20238;-88
2022/11/22 01:19:46;;;;;;;19.17;12.67;;;7.20;99.90;;;;;;5014140;28;20515;-84
2022/11/22 01:22:13;;;;;;;19.30;13.33;;;7.30;99.90;;;;;;5008309;28;20501;-83
2022/11/22 01:24:40;;;;;;;17.27;13.47;;;7.30;99.90;;;;;;5014455;28;20223;-81
2022/11/22 01:27:07;;;;;;;25.73;15.10;;;7.30;99.90;;;;;;5010362;28;20216;-84
2022/11/22 01:29:34;;;;;;;19.80;14.57;;;7.30;99.90;;;;;;4993917;28;20266;-79
2022/11/22 01:32:00;;;;;;;22.77;14.73;;;7.30;99.90;;;;;;4993971;28;20196;-81
2022/11/22 01:34:27;;;;;;;20.37;15.27;;;7.30;99.90;;;;;;4994153;28;20208;-82
2022/11/22 01:36:56;;;;;;;28.70;16.53;;;7.30;99.90;;;;;;4993340;28;20210;-81
2022/11/22 01:39:22;;;;;;;21.70;14.73;;;7.30;99.90;;;;;;5007581;28;20624;-81
2022/11/22 01:41:49;;;;;;;21.30;14.60;;;7.30;99.90;;;;;;5013304;28;20203;-80
2022/11/22 01:44:19;;;;;;;22.70;14.67;;;7.30;99.90;;;;;;5003697;28;20245;-82
2022/11/22 01:46:47;;;;;;;25.37;15.00;;;7.30;99.90;;;;;;4993034;28;20215;-82
2022/11/22 01:49:21;;;;;;;17.57;13.80;;;7.30;99.90;;;;;;4996426;28;20225;-82
2022/11/22 01:51:51;;;;;;;23.90;13.80;;;7.30;99.90;;;;;;5012011;28;20350;-83
2022/11/22 01:54:24;;;;;;;26.77;13.70;;;7.40;99.90;;;;;;5003944;28;20199;-82
2022/11/22 01:56:55;;;;;;;17.80;12.30;;;7.40;99.90;;;;;;4993559;28;20580;-81
2022/11/22 01:59:26;;;;;;;18.40;11.87;;;7.30;99.90;;;;;;4994757;28;20845;-81
2022/11/22 02:01:54;;;;;;;19.10;12.73;;;7.30;99.90;;;;;;5013665;28;20210;-83
2022/11/22 02:04:23;;;;;;;20.30;11.90;;;7.30;99.90;;;;;;5012971;28;20311;-81
2022/11/22 02:06:57;;;;;;;16.10;11.87;;;7.20;99.90;;;;;;4996601;28;20207;-82
2022/11/22 02:09:27;;;;;;;19.50;10.83;;;7.20;99.90;;;;;;4993525;28;20192;-80
2022/11/22 02:11:57;;;;;;;23.53;10.70;;;7.20;99.90;;;;;;5006869;28;20215;-81
2022/11/22 02:14:26;;;;;;;14.93;9.90;;;7.10;99.90;;;;;;5011199;28;20210;-81
2022/11/22 02:16:53;;;;;;;15.30;9.77;;;7.10;99.90;;;;;;5011661;28;20245;-82
2022/11/22 02:19:28;;;;;;;15.33;10.93;;;7.10;99.90;;;;;;5012082;28;20199;-81
2022/11/22 02:22:01;;;;;;;17.20;10.57;;;7.00;99.90;;;;;;5002813;28;20210;-80
2022/11/22 02:24:37;;;;;;;18.13;10.23;;;7.00;99.90;;;;;;4993110;28;20291;-81
2022/11/22 02:27:05;;;;;;;16.03;9.20;;;7.00;99.90;;;;;;4992462;28;20600;-82
2022/11/22 02:29:33;;;;;;;18.43;9.03;;;7.00;99.90;;;;;;4993287;28;20202;-81
2022/11/22 02:32:00;;;;;;;16.43;9.13;;;7.00;99.90;;;;;;4993626;28;20204;-80
2022/11/22 02:34:26;;;;;;;17.97;9.80;;;6.90;99.90;;;;;;4992386;28;20208;-80
2022/11/22 02:36:54;;;;;;;16.27;8.73;;;6.90;99.90;;;;;;4998395;28;20203;-81
2022/11/22 02:39:26;;;;;;;20.37;9.00;;;6.90;99.90;;;;;;5012007;28;20206;-83
2022/11/22 02:41:54;;;;;;;16.10;8.40;;;6.90;99.90;;;;;;5012433;28;20278;-81
2022/11/22 02:44:24;;;;;;;15.77;8.03;;;6.90;99.90;;;;;;5012206;28;20199;-82
2022/11/22 02:46:54;;;;;;;14.80;9.10;;;6.80;99.90;;;;;;5009259;28;20618;-81
2022/11/22 02:49:23;;;;;;;17.97;8.37;;;6.80;99.90;;;;;;4992391;28;20247;-79
2022/11/22 02:51:51;;;;;;;12.20;8.70;;;6.80;99.90;;;;;;4993170;28;20208;-81
2022/11/22 02:54:18;;;;;;;19.63;8.67;;;6.70;99.90;;;;;;4993359;28;20295;-82
2022/11/22 02:56:46;;;;;;;17.33;7.90;;;6.70;99.90;;;;;;4993142;28;20315;-83
2022/11/22 02:59:12;;;;;;;14.43;7.57;;;6.70;99.90;;;;;;4993274;28;20679;-82
2022/11/22 03:01:42;;;;;;;16.23;7.30;;;6.70;99.90;;;;;;4995299;28;20200;-83
2022/11/22 03:04:08;;;;;;;15.10;7.70;;;6.60;99.90;;;;;;5001606;28;20655;-81
2022/11/22 03:06:35;;;;;;;17.10;9.20;;;6.60;99.90;;;;;;4993077;28;20203;-81
2022/11/22 03:09:02;;;;;;;17.70;7.97;;;6.60;99.90;;;;;;4992078;28;20226;-84
2022/11/22 03:11:29;;;;;;;15.70;7.77;;;6.60;99.90;;;;;;4992930;28;20204;-83
2022/11/22 03:13:56;;;;;;;15.07;7.10;;;6.60;99.90;;;;;;4999252;28;20203;-88
2022/11/22 03:16:23;;;;;;;16.63;7.30;;;6.60;99.90;;;;;;5013488;28;20235;-89
2022/11/22 03:18:51;;;;;;;13.80;6.97;;;6.50;99.90;;;;;;5013944;28;20201;-88
2022/11/22 03:21:18;;;;;;;20.50;6.83;;;6.50;99.90;;;;;;5013747;28;20214;-88
2022/11/22 03:23:44;;;;;;;14.90;6.80;;;6.50;99.90;;;;;;5014327;28;20211;-87
2022/11/22 03:26:12;;;;;;;11.90;6.20;;;6.50;99.90;;;;;;5016342;28;20294;-85
2022/11/22 03:28:38;;;;;;;13.47;6.20;;;6.50;99.90;;;;;;5015330;28;20223;-83
2022/11/22 03:31:06;;;;;;;18.30;6.23;;;6.40;99.90;;;;;;5013682;28;20646;-81
2022/11/22 03:33:33;;;;;;;22.60;6.20;;;6.40;99.90;;;;;;4996381;28;20262;-81
2022/11/22 03:36:02;;;;;;;14.80;6.67;;;6.40;99.90;;;;;;5010238;28;20219;-86
2022/11/22 03:38:29;;;;;;;13.00;5.80;;;6.30;99.90;;;;;;5016470;28;20195;-85
2022/11/22 03:40:56;;;;;;;20.70;7.10;;;6.30;99.90;;;;;;5015766;28;20209;-87
2022/11/22 03:43:23;;;;;;;16.30;5.93;;;6.30;99.90;;;;;;5009682;28;20306;-90
2022/11/22 03:45:50;;;;;;;21.40;5.53;;;6.30;99.90;;;;;;5006509;28;20207;-89
2022/11/22 03:48:26;;;;;;;17.43;5.77;;;6.30;99.90;;;;;;5017523;28;20227;-89
2022/11/22 03:50:53;;;;;;;19.00;5.80;;;6.30;99.90;;;;;;5003910;28;20203;-89
2022/11/22 03:53:22;;;;;;;19.70;5.37;;;6.20;99.90;;;;;;4999127;28;20208;-87
2022/11/22 03:55:49;;;;;;;20.60;6.23;;;6.20;99.90;;;;;;4997750;28;20201;-88
2022/11/22 03:58:15;;;;;;;13.90;5.87;;;6.20;99.90;;;;;;4996861;28;20269;-88
2022/11/22 04:00:42;;;;;;;15.37;6.17;;;6.10;99.90;;;;;;5006842;28;20207;-87
2022/11/22 04:03:09;;;;;;;24.90;6.43;;;6.10;99.90;;;;;;5016928;28;20206;-89
2022/11/22 04:05:36;;;;;;;12.30;4.77;;;6.10;99.90;;;;;;5015252;28;20210;-89
2022/11/22 04:08:03;;;;;;;20.43;6.07;;;6.10;99.90;;;;;;4996860;28;20228;-86
2022/11/22 04:10:32;;;;;;;15.30;4.83;;;6.10;99.90;;;;;;4996977;28;20204;-88
2022/11/22 04:12:59;;;;;;;18.73;5.73;;;6.10;99.90;;;;;;4996858;28;20200;-88
2022/11/22 04:15:25;;;;;;;13.90;5.00;;;6.10;99.90;;;;;;5015880;28;20325;-87
2022/11/22 04:17:52;;;;;;;19.10;6.03;;;6.10;99.90;;;;;;5014799;28;20227;-87
2022/11/22 04:23:09;;;;;;;18.63;4.87;;;6.10;99.90;;;;;;5000593;28;20245;-87
2022/11/22 04:25:38;;;;;;;15.47;5.57;;;6.10;99.90;;;;;;5015131;28;20277;-81
2022/11/22 04:28:06;;;;;;;24.17;6.10;;;6.10;99.90;;;;;;5011908;28;20571;-85
2022/11/22 04:33:18;;;;;;;14.40;5.13;;;6.10;99.90;;;;;;4996490;28;20199;-87
2022/11/22 04:35:46;;;;;;;17.70;5.10;;;6.00;99.90;;;;;;4996312;28;20208;-83
2022/11/22 04:38:14;;;;;;;20.67;5.03;;;6.00;99.90;;;;;;4994959;28;20192;-81
2022/11/22 04:40:42;;;;;;;19.50;4.90;;;6.00;99.90;;;;;;4994659;28;20204;-83
2022/11/22 04:45:58;;;;;;;17.17;4.00;;;6.00;99.90;;;;;;4995792;28;20179;-87
2022/11/22 04:48:25;;;;;;;13.43;3.87;;;6.00;99.90;;;;;;5013228;28;20306;-88
2022/11/22 04:53:36;;;;;;;16.33;3.57;;;5.90;99.90;;;;;;5015304;28;20492;-88
2022/11/22 04:56:05;;;;;;;11.40;3.53;;;5.90;99.90;;;;;;5016159;28;20222;-89
2022/11/22 04:58:31;;;;;;;19.10;4.57;;;5.90;99.90;;;;;;5015773;28;20196;-87
2022/11/22 05:00:58;;;;;;;17.93;4.13;;;5.90;99.90;;;;;;5015448;28;20217;-88
2022/11/22 05:03:25;;;;;;;11.40;3.70;;;5.90;99.90;;;;;;5015733;28;20207;-86
2022/11/22 05:05:52;;;;;;;15.93;4.27;;;5.80;99.90;;;;;;5015667;28;20206;-88
2022/11/22 05:08:19;;;;;;;14.53;4.03;;;5.80;99.90;;;;;;5004969;28;20230;-88
2022/11/22 05:10:58;;;;;;;20.93;5.23;;;5.80;99.90;;;;;;4997866;28;20204;-88
2022/11/22 05:13:28;;;;;;;22.50;4.67;;;5.70;99.90;;;;;;5014640;28;20207;-87
2022/11/22 05:15:56;;;;;;;11.80;3.70;;;5.70;99.90;;;;;;5015148;28;20243;-88
2022/11/22 05:18:23;;;;;;;13.37;3.50;;;5.70;99.90;;;;;;5015458;28;20202;-89
2022/11/22 05:20:50;;;;;;;12.10;3.80;;;5.70;99.90;;;;;;5006389;28;20542;-88
2022/11/22 05:26:03;;;;;;;15.27;3.47;;;5.70;99.90;;;;;;5005647;28;20214;-88
2022/11/22 05:28:33;;;;;;;17.37;4.43;;;5.60;99.90;;;;;;5014844;28;20230;-87
2022/11/22 05:31:05;;;;;;;13.60;3.63;;;5.60;99.90;;;;;;5014853;28;20677;-89
2022/11/22 05:33:32;;;;;;;14.40;4.60;;;5.60;99.90;;;;;;5015206;28;20209;-88
2022/11/22 05:35:59;;;;;;;11.67;3.20;;;5.60;99.90;;;;;;5015024;28;20269;-89
2022/11/22 05:38:26;;;;;;;9.33;3.20;;;5.60;99.90;;;;;;5015348;28;20195;-89
2022/11/22 05:40:53;;;;;;;18.30;3.57;;;5.60;99.90;;;;;;5014208;28;20199;-89
2022/11/22 05:43:20;;;;;;;14.93;4.37;;;5.70;99.90;;;;;;4994927;28;20219;-89
2022/11/22 05:45:48;;;;;;;11.23;4.03;;;5.70;99.90;;;;;;5004702;28;20799;-89
2022/11/22 05:48:15;;;;;;;13.23;3.77;;;5.70;99.90;;;;;;5013223;28;20227;-85
2022/11/22 05:50:42;;;;;;;12.97;3.77;;;5.70;99.90;;;;;;5013804;28;20203;-86
2022/11/22 05:53:09;;;;;;;9.00;2.63;;;5.70;99.90;;;;;;5004596;28;20214;-84
2022/11/22 05:55:35;;;;;;;13.83;3.97;;;5.70;99.90;;;;;;4994792;28;20211;-85
2022/11/22 05:58:02;;;;;;;12.83;4.80;;;5.70;99.90;;;;;;4996041;28;20294;-88
2022/11/22 06:00:30;;;;;;;9.97;3.63;;;5.70;99.90;;;;;;5013585;28;20683;-85
2022/11/22 06:03:01;;;;;;;13.17;3.77;;;5.70;99.90;;;;;;5013437;28;20205;-84
2022/11/22 06:05:29;;;;;;;15.17;3.90;;;5.70;99.90;;;;;;5011492;28;20699;-84
2022/11/22 06:07:58;;;;;;;14.13;4.67;;;5.70;99.90;;;;;;5013662;28;20298;-84
2022/11/22 06:10:25;;;;;;;14.03;4.33;;;5.60;99.90;;;;;;5012971;28;20595;-84
2022/11/22 06:12:52;;;;;;;10.63;4.17;;;5.60;99.90;;;;;;5009164;28;20292;-85
2022/11/22 06:15:19;;;;;;;12.27;4.73;;;5.60;99.90;;;;;;4993504;28;20200;-81
2022/11/22 06:17:46;;;;;;;14.37;4.47;;;5.60;99.90;;;;;;4993031;28;20246;-83
2022/11/22 06:20:15;;;;;;;8.37;4.37;;;5.60;99.90;;;;;;4993329;28;20275;-84
2022/11/22 06:22:41;;;;;;;11.10;4.57;;;5.60;99.90;;;;;;4993508;28;20208;-87
2022/11/22 06:25:09;;;;;;;14.87;4.27;;;5.60;99.90;;;;;;4992927;28;20210;-80
2022/11/22 06:27:36;;;;;;;16.93;4.77;;;5.60;99.90;;;;;;4993573;28;20323;-82
2022/11/22 06:30:04;;;;;;;15.77;5.67;;;5.50;99.90;;;;;;4995143;28;20537;-84
2022/11/22 06:32:33;;;;;;;15.53;4.57;;;5.50;99.90;;;;;;5026606;28;20205;-85
2022/11/22 06:35:01;;;;;;;18.27;7.17;;;5.50;99.90;;;;;;5024465;28;20196;-83
2022/11/22 06:37:29;;;;;;;14.07;5.37;;;5.50;99.90;;;;;;4992733;28;20200;-84
2022/11/22 06:39:56;;;;;;;16.50;5.87;;;5.40;99.90;;;;;;4992111;28;20815;-84
2022/11/22 06:42:23;;;;;;;15.60;6.03;;;5.40;99.90;;;;;;4993586;28;20499;-82
2022/11/22 06:44:50;;;;;;;15.83;6.83;;;5.40;99.90;;;;;;4992251;28;20619;-84
2022/11/22 06:47:17;;;;;;;17.37;6.40;;;5.40;99.90;;;;;;4993669;28;20208;-88
2022/11/22 06:49:44;;;;;;;18.83;7.00;;;5.40;99.90;;;;;;4994644;28;20235;-90
2022/11/22 06:52:12;;;;;;;13.73;6.90;;;5.40;99.90;;;;;;4994845;28;20207;-88
2022/11/22 06:54:40;;;;;;;15.10;6.97;;;5.40;99.90;;;;;;4994159;28;20299;-87
2022/11/22 06:57:07;;;;;;;17.67;7.13;;;5.40;99.90;;;;;;4994198;28;20218;-87
2022/11/22 06:59:35;;;;;;;13.27;6.67;;;5.40;99.90;;;;;;4996659;28;20216;-83
2022/11/22 07:02:02;;;;;;;14.60;6.27;;;5.40;99.90;;;;;;4997699;28;20258;-87
2022/11/22 07:04:29;;;;;;;18.97;6.93;;;5.50;99.90;;;;;;4998511;28;20204;-83
2022/11/22 07:06:56;;;;;;;15.47;6.80;;;5.50;99.90;;;;;;4998292;28;20203;-87
2022/11/22 07:09:23;;;;;;;14.93;6.43;;;5.50;99.90;;;;;;4997892;28;20224;-86
2022/11/22 07:11:51;;;;;;;20.40;7.93;;;5.50;99.90;;;;;;4998138;28;20208;-88
2022/11/22 07:14:18;;;;;;;20.60;8.53;;;5.60;99.90;;;;;;4997895;28;20212;-89
2022/11/22 07:16:45;;;;;;;15.43;8.33;;;5.60;99.90;;;;;;4996523;28;20608;-84
2022/11/22 07:19:11;;;;;;;18.00;9.07;;;5.70;99.90;;;;;;5003037;28;20542;-82
2022/11/22 07:21:38;;;;;;;15.73;8.73;;;5.70;99.90;;;;;;5015993;28;20729;-85
2022/11/22 07:24:07;;;;;;;16.43;9.40;;;5.70;99.90;;;;;;5016444;28;20207;-81
2022/11/22 07:26:37;;;;;;;20.23;9.63;;;5.70;99.90;;;;;;5015745;28;20211;-83
2022/11/22 07:29:05;;;;;;;21.00;9.47;;;5.70;99.90;;;;;;5015422;28;20223;-84
2022/11/22 07:31:33;;;;;;;16.43;9.93;;;5.80;99.90;;;;;;5016117;28;20496;-80
2022/11/22 07:34:00;;;;;;;16.03;10.13;;;5.80;99.90;;;;;;5016356;28;20200;-82
2022/11/22 07:36:28;;;;;;;18.13;11.47;;;5.80;99.90;;;;;;4997795;28;20211;-81
2022/11/22 07:38:55;;;;;;;19.87;11.13;;;5.80;99.90;;;;;;4996971;28;20257;-85
2022/11/22 07:41:22;;;;;;;18.30;10.53;;;5.80;99.90;;;;;;4996761;28;20207;-86
2022/11/22 07:43:48;;;;;;;23.53;11.43;;;5.80;99.90;;;;;;4996887;28;20231;-82
2022/11/22 07:46:25;;;;;;;19.10;10.63;;;5.90;99.90;;;;;;4996278;28;20200;-81
2022/11/22 07:48:52;;;;;;;18.53;11.60;;;5.90;99.90;;;;;;4995414;28;20601;-81
2022/11/22 07:51:19;;;;;;;18.43;10.90;;;5.90;99.90;;;;;;4996215;28;20216;-81
2022/11/22 07:53:46;;;;;;;15.87;11.50;;;5.90;99.90;;;;;;4996139;28;20204;-82
2022/11/22 07:56:14;;;;;;;21.03;12.17;;;5.90;99.90;;;;;;4995774;28;20485;-83
2022/11/22 07:58:41;;;;;;;18.40;12.17;;;6.00;99.90;;;;;;4996903;28;20236;-80
2022/11/22 08:01:09;;;;;;;16.37;10.60;;;6.00;99.90;;;;;;4996653;28;20247;-81
2022/11/22 08:03:38;;;;;;;18.07;10.43;;;6.00;99.90;;;;;;4996069;28;20202;-80
2022/11/22 08:06:07;;;;;;;12.70;9.80;;;6.00;99.90;;;;;;5001859;28;20203;-81
2022/11/22 08:08:34;;;;;;;14.87;9.50;;;6.00;99.90;;;;;;5015275;28;20209;-81
2022/11/22 08:11:01;;;;;;;14.70;9.33;;;6.00;99.90;;;;;;5012895;28;20199;-81
2022/11/22 08:13:29;;;;;;;15.27;9.47;;;6.00;99.90;;;;;;5015102;28;20615;-80
2022/11/22 08:15:56;;;;;;;20.60;9.83;;;6.10;99.90;;;;;;5008815;28;20239;-83
2022/11/22 08:18:22;;;;;;;16.93;10.53;;;6.10;99.90;;;;;;4994787;28;20207;-80
2022/11/22 08:20:51;;;;;;;17.10;8.97;;;6.10;99.90;;;;;;4995236;28;20192;-82
2022/11/22 08:23:18;;;;;;;15.13;8.73;;;6.10;99.90;;;;;;5017390;28;20602;-81
2022/11/22 08:25:45;;;;;;;20.80;9.00;;;6.10;99.90;;;;;;5027264;28;20261;-80
2022/11/22 08:28:12;;;;;;;14.27;8.30;;;6.10;99.90;;;;;;5029295;28;20212;-80
2022/11/22 08:30:40;;;;;;;15.37;8.80;;;6.10;99.90;;;;;;5015630;28;20639;-81
2022/11/22 08:33:07;;;;;;;11.83;8.43;;;6.10;99.90;;;;;;5024248;28;20855;-80
2022/11/22 08:35:35;;;;;;;14.17;8.73;;;6.20;99.90;;;;;;5012502;28;20249;-81
2022/11/22 08:38:03;;;;;;;13.90;8.13;;;6.20;99.90;;;;;;5026879;28;20633;-84
2022/11/22 08:40:30;;;;;;;16.33;8.07;;;6.20;99.90;;;;;;5019278;28;20836;-81
2022/11/22 08:42:57;;;;;;;11.43;7.70;;;6.20;99.90;;;;;;5020642;28;20218;-80
2022/11/22 08:45:24;;;;;;;16.50;7.57;;;6.20;99.90;;;;;;5024156;28;20199;-79
2022/11/22 08:47:51;;;;;;;16.00;8.27;;;6.20;99.90;;;;;;5013603;28;20325;-81
2022/11/22 08:50:19;;;;;;;12.93;7.87;;;6.20;99.90;;;;;;5025093;28;20232;-81
2022/11/22 08:52:45;;;;;;;15.37;7.83;;;6.20;99.90;;;;;;5020097;28;20814;-83
2022/11/22 08:55:14;;;;;;;13.57;7.67;;;6.30;99.90;;;;;;5016678;28;20808;-79
2022/11/22 08:57:41;;;;;;;12.50;7.67;;;6.30;99.90;;;;;;5020772;28;20207;-82
2022/11/22 09:00:09;;;;;;;14.20;7.33;;;6.30;99.90;;;;;;5010125;28;20289;-81
2022/11/22 09:02:36;;;;;;;11.57;7.20;;;6.30;99.90;;;;;;5020532;28;20211;-82
2022/11/22 09:05:03;;;;;;;13.00;7.80;;;6.30;99.90;;;;;;5016992;28;20206;-83
2022/11/22 09:07:30;;;;;;;10.03;6.80;;;6.40;99.90;;;;;;5018663;28;20578;-81
2022/11/22 09:09:58;;;;;;;12.43;7.07;;;6.40;99.90;;;;;;5027168;28;20309;-86
2022/11/22 09:12:26;;;;;;;12.60;6.70;;;6.40;99.90;;;;;;5018193;28;20253;-84
2022/11/22 09:14:55;;;;;;;9.63;6.17;;;6.50;99.90;;;;;;5006343;28;20200;-80
2022/11/22 09:17:22;;;;;;;12.47;6.37;;;6.50;99.90;;;;;;5003831;28;20326;-82
2022/11/22 09:19:49;;;;;;;10.20;6.00;;;6.50;99.90;;;;;;5011284;28;20489;-86
2022/11/22 09:22:15;;;;;;;12.80;7.13;;;6.50;99.90;;;;;;5008719;28;20206;-87
2022/11/22 09:24:42;;;;;;;12.20;7.10;;;6.50;99.90;;;;;;5010104;28;20206;-81
2022/11/22 09:27:09;;;;;;;9.00;6.40;;;6.50;99.90;;;;;;5011582;28;20206;-86
2022/11/22 09:29:37;;;;;;;11.80;7.53;;;6.60;99.90;;;;;;5006709;28;20519;-85
2022/11/22 09:32:04;;;;;;;12.70;6.83;;;6.60;99.90;;;;;;5013885;28;20206;-80
2022/11/22 09:34:31;;;;;;;11.13;6.97;;;6.60;99.90;;;;;;4994764;28;20303;-84
2022/11/22 09:36:58;;;;;;;8.63;6.27;;;6.60;99.90;;;;;;4994793;28;20204;-86
2022/11/22 09:39:25;;;;;;;14.90;6.53;;;6.70;99.90;;;;;;4994657;28;20298;-86
2022/11/22 09:42:10;;;;;;;11.80;6.00;;;6.70;99.90;;;;;;5014306;28;20202;-87
2022/11/22 09:44:58;;;;;;;11.63;6.30;;;6.70;99.90;;;;;;4996463;28;20196;-83
2022/11/22 09:47:34;;;;;;;9.20;5.97;;;6.70;99.90;;;;;;5011798;28;20298;-83
2022/11/22 09:50:13;;;;;;;7.90;5.90;;;6.70;99.90;;;;;;5013704;28;20220;-86
2022/11/22 09:52:46;;;;;;;6.63;5.57;;;6.70;99.90;;;;;;4999967;28;20207;-84
2022/11/22 09:55:22;;;;;;;8.07;6.20;;;6.70;99.90;;;;;;4999659;28;20190;-80
2022/11/22 09:57:52;;;;;;;10.53;6.13;;;6.80;99.90;;;;;;5010281;28;20195;-82
2022/11/22 10:00:24;;;;;;;5.63;5.03;;;6.80;99.90;;;;;;5013414;28;20204;-81
2022/11/22 10:02:56;;;;;;;6.63;5.27;;;6.80;99.90;;;;;;5004340;28;20223;-81
2022/11/22 10:05:25;;;;;;;7.80;5.90;;;6.90;99.90;;;;;;5013605;28;20490;-86
2022/11/22 10:07:57;;;;;;;10.70;6.57;;;6.90;99.90;;;;;;5014147;28;20210;-89
2022/11/22 10:10:29;;;;;;;8.63;5.40;;;6.90;99.90;;;;;;4999793;28;20207;-89
2022/11/22 10:13:01;;;;;;;6.73;4.97;;;6.90;99.90;;;;;;5006774;28;20210;-82
2022/11/22 10:15:37;;;;;;;10.03;5.53;;;6.90;99.90;;;;;;5001611;28;20528;-83
2022/11/22 10:18:11;;;;;;;8.17;5.83;;;6.90;99.90;;;;;;5031697;28;20190;-88
2022/11/22 10:20:41;;;;;;;7.60;5.70;;;7.00;99.90;;;;;;5017504;28;20212;-86
2022/11/22 10:23:16;;;;;;;6.80;5.47;;;7.00;99.90;;;;;;5012447;28;20234;-87
2022/11/22 10:25:47;;;;;;;12.23;5.60;;;7.00;99.90;;;;;;4997405;28;20195;-85
2022/11/22 10:28:19;;;;;;;8.30;5.37;;;7.00;99.90;;;;;;5007603;28;20199;-89
2022/11/22 10:30:58;;;;;;;8.50;5.30;;;7.10;99.90;;;;;;5010965;28;20519;-87
2022/11/22 10:33:29;;;;;;;10.27;5.83;;;7.10;99.90;;;;;;5016797;28;20199;-87
2022/11/22 10:36:17;;;;;;;8.33;5.53;;;7.20;99.90;;;;;;5011793;28;20538;-88
2022/11/22 10:39:03;;;;;;;12.37;5.43;;;7.30;99.90;;;;;;4999006;28;20192;-88
2022/11/22 10:41:41;;;;;;;6.70;5.00;;;7.30;99.90;;;;;;4998488;28;20203;-86
2022/11/22 10:44:20;;;;;;;8.70;4.30;;;7.30;99.90;;;;;;5016040;28;20203;-87
2022/11/22 10:46:58;;;;;;;11.00;5.23;;;7.30;99.90;;;;;;5018180;28;20191;-87
2022/11/22 10:49:38;;;;;;;10.23;5.43;;;7.40;99.90;;;;;;4998382;28;20223;-87
2022/11/22 10:52:14;;;;;;;6.00;4.43;;;7.40;99.90;;;;;;4998737;28;20198;-88
2022/11/22 10:54:49;;;;;;;6.93;4.13;;;7.40;99.90;;;;;;4998006;28;20585;-87
2022/11/22 10:57:33;;;;;;;8.93;3.90;;;7.40;99.90;;;;;;5000694;28;20607;-88
2022/11/22 11:00:15;;;;;;;9.43;4.40;;;7.40;99.90;;;;;;4999140;28;20636;-88
2022/11/22 11:03:11;;;;;;;7.97;3.83;;;7.40;99.90;;;;;;5004352;28;20251;-84
2022/11/22 11:05:43;;;;;;;6.37;4.03;;;7.40;99.90;;;;;;4998216;28;20192;-85
2022/11/22 11:08:15;;;;;;;9.80;3.87;;;7.40;99.90;;;;;;5004149;28;20592;-88
2022/11/22 11:10:43;;;;;;;7.30;4.00;;;7.40;99.90;;;;;;5016922;28;20269;-87
2022/11/22 11:13:20;;;;;;;6.27;4.00;;;7.50;99.90;;;;;;5021882;28;20619;-86
2022/11/22 11:15:50;;;;;;;14.37;4.70;;;7.40;99.90;;;;;;5002412;28;20238;-87
2022/11/22 11:18:24;;;;;;;7.00;3.87;;;7.40;99.90;;;;;;5023222;28;20206;-87
2022/11/22 11:20:52;;;;;;;6.03;3.53;;;7.40;99.90;;;;;;5015546;28;20190;-88
2022/11/22 11:23:19;;;;;;;6.20;3.73;;;7.50;99.90;;;;;;4997471;28;20204;-87
2022/11/22 11:25:48;;;;;;;7.30;3.67;;;7.50;99.90;;;;;;4997878;28;20206;-88
2022/11/22 11:28:19;;;;;;;6.33;3.93;;;7.50;99.90;;;;;;5004517;28;20218;-86
2022/11/22 11:30:49;;;;;;;4.77;3.83;;;7.50;99.90;;;;;;5017362;28;20215;-87
2022/11/22 11:33:25;;;;;;;8.33;4.30;;;7.50;99.90;;;;;;5016321;28;20580;-87
2022/11/22 11:35:55;;;;;;;8.77;4.20;;;7.50;99.90;;;;;;5013678;28;20212;-89
2022/11/22 11:38:30;;;;;;;10.47;3.70;;;7.60;99.90;;;;;;4997641;28;20287;-86
2022/11/22 11:40:57;;;;;;;7.80;3.80;;;7.60;99.90;;;;;;4997196;28;20199;-85
2022/11/22 11:43:25;;;;;;;8.33;3.70;;;7.60;99.90;;;;;;4995310;28;20605;-86
2022/11/22 11:45:52;;;;;;;6.60;3.43;;;7.60;99.90;;;;;;4997662;28;20959;-84
2022/11/22 11:48:36;;;;;;;12.00;4.10;;;7.60;99.90;;;;;;5005361;28;20925;-85
2022/11/22 11:51:11;;;;;;;5.43;3.30;;;7.60;99.90;;;;;;4997463;28;20216;-83
2022/11/22 11:53:39;;;;;;;9.23;3.63;;;7.60;99.90;;;;;;4997410;28;20192;-84
2022/11/22 11:56:21;;;;;;;9.40;4.30;;;7.60;99.90;;;;;;4996629;28;20208;-86
2022/11/22 11:58:51;;;;;;;6.67;3.40;;;7.70;99.90;;;;;;4997349;28;20207;-88
2022/11/22 12:01:19;;;;;;;5.53;2.70;;;7.70;99.90;;;;;;5012672;28;20708;-85
2022/11/22 12:03:58;;;;;;;6.97;3.03;;;7.70;99.90;;;;;;5016886;28;20211;-88
2022/11/22 12:06:29;;;;;;;4.77;3.33;;;7.70;99.90;;;;;;5004140;28;20230;-88
2022/11/22 12:08:56;;;;;;;6.07;2.87;;;7.70;99.90;;;;;;4996885;28;20254;-86
2022/11/22 12:11:32;;;;;;;14.77;4.43;;;7.70;99.90;;;;;;4997327;28;20275;-86
2022/11/22 12:14:03;;;;;;;7.40;2.80;;;7.70;99.90;;;;;;5005951;28;20207;-86
2022/11/22 12:16:34;;;;;;;9.93;3.07;;;7.80;99.90;;;;;;5016500;28;20247;-87
2022/11/22 12:19:10;;;;;;;10.30;3.67;;;7.80;99.90;;;;;;5011611;28;20202;-87
2022/11/22 12:21:52;;;;;;;5.83;2.97;;;7.90;99.90;;;;;;4997005;28;20222;-86
2022/11/22 12:24:23;;;;;;;8.67;3.40;;;8.00;99.90;;;;;;4996704;28;20282;-86
2022/11/22 12:26:50;;;;;;;6.87;3.00;;;8.10;99.90;;;;;;4996827;28;20196;-87
2022/11/22 12:29:17;;;;;;;12.07;3.63;;;8.10;99.90;;;;;;4996308;28;20223;-87
2022/11/22 12:31:49;;;;;;;9.23;3.23;;;8.10;99.90;;;;;;4995860;28;20216;-87
2022/11/22 12:34:23;;;;;;;5.83;3.10;;;8.20;99.90;;;;;;4996507;28;20656;-87
2022/11/22 12:36:56;;;;;;;8.57;3.33;;;8.10;99.90;;;;;;5002887;28;20274;-87
2022/11/22 12:39:26;;;;;;;5.83;3.13;;;8.10;99.90;;;;;;5016024;28;20226;-85
2022/11/22 12:41:59;;;;;;;10.10;2.90;;;8.00;99.90;;;;;;5008111;28;20192;-84
2022/11/22 12:44:27;;;;;;;7.83;3.20;;;8.00;99.90;;;;;;4996498;28;20188;-85
2022/11/22 12:46:59;;;;;;;8.60;3.20;;;8.00;99.90;;;;;;4996505;28;20203;-85
2022/11/22 12:49:34;;;;;;;7.90;3.30;;;8.00;99.90;;;;;;4995723;28;20223;-88
2022/11/22 12:52:11;;;;;;;7.50;2.80;;;7.90;99.90;;;;;;5003637;28;20218;-86
2022/11/22 12:54:43;;;;;;;7.53;3.00;;;7.90;99.90;;;;;;5014986;28;20208;-85
2022/11/22 12:57:17;;;;;;;6.33;3.37;;;7.80;99.90;;;;;;5014751;28;20202;-81
2022/11/22 12:59:50;;;;;;;5.13;3.00;;;7.80;99.90;;;;;;4999598;28;20200;-85
2022/11/22 13:02:23;;;;;;;5.87;3.43;;;7.80;99.90;;;;;;4995840;28;20207;-86
2022/11/22 13:04:57;;;;;;;8.17;3.73;;;7.80;99.90;;;;;;4995819;28;20575;-86
2022/11/22 13:07:36;;;;;;;8.43;3.87;;;7.80;99.90;;;;;;4995481;28;20282;-84
2022/11/22 13:10:08;;;;;;;4.73;3.20;;;7.80;99.90;;;;;;4995850;28;20279;-85
2022/11/22 13:12:39;;;;;;;12.63;3.90;;;7.80;99.90;;;;;;4993535;28;20200;-81